createdAt,value
2022-12-18T00:02:20.624Z,97884.97
2022-12-18T00:04:47.558Z,97898.69
2022-12-18T00:07:16.350Z,97899.97
2022-12-18T00:09:46.537Z,97897.13
2022-12-18T00:14:42.734Z,97912.47
2022-12-18T00:17:09.295Z,97909.03
2022-12-18T00:19:38.307Z,97913.56
2022-12-18T00:22:07.514Z,97912.78
2022-12-18T00:24:34.083Z,97905.59
2022-12-18T00:27:03.709Z,97905.75
2022-12-18T00:29:30.431Z,97902.63
2022-12-18T00:31:57.016Z,97906.22
2022-12-18T00:34:23.758Z,97905.13
2022-12-18T00:36:50.340Z,97906.69
2022-12-18T00:39:16.875Z,97908.59
2022-12-18T00:42:01.794Z,97912.94
2022-12-18T00:44:31.314Z,97904.66
2022-12-18T00:46:57.880Z,97904.19
2022-12-18T00:49:26.996Z,97907.16
2022-12-18T00:51:53.603Z,97913.72
2022-12-18T00:54:20.148Z,97920.91
2022-12-18T00:56:49.870Z,97920.13
2022-12-18T00:59:21.691Z,97917.00
2022-12-18T01:01:48.872Z,97916.22
2022-12-18T01:04:16.150Z,97922.81
2022-12-18T01:06:42.679Z,97926.84
2022-12-18T01:09:11.733Z,97922.94
2022-12-18T01:11:43.200Z,97923.09
2022-12-18T01:14:09.929Z,97923.09
2022-12-18T01:16:36.591Z,97930.31
2022-12-18T01:19:03.313Z,97931.09
2022-12-18T01:21:37.187Z,97936.72
2022-12-18T01:24:04.016Z,97941.06
2022-12-18T01:26:30.647Z,97946.25
2022-12-18T01:28:59.991Z,97948.59
2022-12-18T01:31:31.652Z,97945.16
2022-12-18T01:34:01.148Z,97950.16
2022-12-18T01:36:31.109Z,97958.94
2022-12-18T01:39:02.423Z,97953.13
2022-12-18T01:41:49.223Z,97950.16
2022-12-18T01:44:53.563Z,97950.19
2022-12-18T01:47:31.367Z,97960.63
2022-12-18T01:50:00.469Z,97967.53
2022-12-18T01:52:34.544Z,97978.81
2022-12-18T01:55:04.938Z,97973.00
2022-12-18T01:57:31.804Z,97982.56
2022-12-18T02:00:06.059Z,97979.91
2022-12-18T02:02:35.027Z,97963.31
2022-12-18T02:05:03.136Z,97975.06
2022-12-18T02:07:38.858Z,97975.50
2022-12-18T02:10:17.962Z,97968.47
2022-12-18T02:12:57.385Z,97964.41
2022-12-18T02:15:50.328Z,97963.34
2022-12-18T02:18:28.168Z,97970.66
2022-12-18T02:21:17.024Z,97968.00
2022-12-18T02:24:02.240Z,97968.16
2022-12-18T02:26:35.307Z,97968.66
2022-12-18T02:29:07.066Z,97969.41
2022-12-18T02:31:43.359Z,97968.31
2022-12-18T02:34:11.508Z,97969.56
2022-12-18T02:36:45.242Z,97974.88
2022-12-18T02:39:16.413Z,97974.09
2022-12-18T02:41:43.189Z,97971.91
2022-12-18T02:44:12.935Z,97974.09
2022-12-18T02:46:46.303Z,97975.50
2022-12-18T02:49:18.839Z,97971.13
2022-12-18T02:51:54.336Z,97978.47
2022-12-18T02:54:40.031Z,97983.94
2022-12-18T02:57:36.828Z,97984.72
2022-12-18T03:00:08.876Z,97989.75
2022-12-18T03:02:47.448Z,97979.91
2022-12-18T03:05:20.180Z,97990.03
2022-12-18T03:07:56.325Z,97988.19
2022-12-18T03:10:29.011Z,97986.44
2022-12-18T03:13:05.364Z,97996.59
2022-12-18T03:15:40.926Z,98004.25
2022-12-18T03:18:23.121Z,98003.47
2022-12-18T03:20:54.688Z,98002.22
2022-12-18T03:23:32.619Z,98006.91
2022-12-18T03:26:07.584Z,98008.47
2022-12-18T03:28:39.942Z,97998.16
2022-12-18T03:31:13.070Z,98005.03
2022-12-18T03:33:49.807Z,98003.00
2022-12-18T03:36:16.457Z,98009.88
2022-12-18T03:38:43.130Z,98011.63
2022-12-18T03:41:16.050Z,98007.41
2022-12-18T03:44:13.633Z,98013.19
2022-12-18T03:47:04.226Z,98016.78
2022-12-18T03:49:41.757Z,98017.06
2022-12-18T03:52:21.636Z,98017.25
2022-12-18T03:54:51.284Z,98013.66
2022-12-18T03:57:23.956Z,98017.72
2022-12-18T03:59:57.287Z,98016.94
2022-12-18T04:02:27.315Z,98017.13
2022-12-18T04:05:00.910Z,98019.44
2022-12-18T04:07:28.657Z,98011.78
2022-12-18T04:10:02.440Z,98023.66
2022-12-18T04:12:35.449Z,98021.31
2022-12-18T04:15:03.304Z,98026.19
2022-12-18T04:17:32.546Z,98025.50
2022-12-18T04:20:01.660Z,98026.31
2022-12-18T04:22:28.240Z,98028.47
2022-12-18T04:24:54.800Z,98035.53
2022-12-18T04:27:21.877Z,98030.81
2022-12-18T04:29:50.670Z,98034.28
2022-12-18T04:32:20.195Z,98037.09
2022-12-18T04:34:46.746Z,98048.16
2022-12-18T04:37:13.359Z,98036.75
2022-12-18T04:39:40.123Z,98040.38
2022-12-18T04:42:07.101Z,98037.91
2022-12-18T04:44:35.906Z,98040.22
2022-12-18T04:47:02.443Z,98037.88
2022-12-18T04:49:29.008Z,98037.09
2022-12-18T04:51:55.588Z,98037.88
2022-12-18T04:54:24.742Z,98039.78
2022-12-18T04:56:53.635Z,98048.69
2022-12-18T04:59:21.003Z,98036.97
2022-12-18T05:01:47.646Z,98040.72
2022-12-18T05:04:17.676Z,98040.09
2022-12-18T05:06:44.632Z,98046.84
2022-12-18T05:09:13.370Z,98041.53
2022-12-18T05:11:42.290Z,98040.13
2022-12-18T05:14:08.855Z,98033.28
2022-12-18T05:16:35.429Z,98044.22
2022-12-18T05:19:01.976Z,98031.22
2022-12-18T05:21:30.976Z,98037.50
2022-12-18T05:23:57.490Z,98039.06
2022-12-18T05:26:24.181Z,98036.09
2022-12-18T05:28:50.718Z,98039.38
2022-12-18T05:31:19.644Z,98042.97
2022-12-18T05:33:46.260Z,98042.34
2022-12-18T05:36:13.102Z,98037.34
2022-12-18T05:38:42.279Z,98054.41
2022-12-18T05:41:12.368Z,98052.53
2022-12-18T05:43:43.342Z,98048.00
2022-12-18T05:46:15.406Z,98048.47
2022-12-18T05:48:45.889Z,98057.53
2022-12-18T05:51:19.215Z,98051.25
2022-12-18T05:53:49.620Z,98062.84
2022-12-18T05:56:21.352Z,98057.84
2022-12-18T05:58:52.187Z,98057.84
2022-12-18T06:01:22.590Z,98071.44
2022-12-18T06:03:49.608Z,98065.50
2022-12-18T06:06:27.978Z,98063.16
2022-12-18T06:08:55.876Z,98069.44
2022-12-18T06:11:26.556Z,98069.56
2022-12-18T06:13:58.261Z,98062.06
2022-12-18T06:16:28.182Z,98061.28
2022-12-18T06:19:00.374Z,98061.75
2022-12-18T06:21:30.857Z,98068.34
2022-12-18T06:23:58.738Z,98078.81
2022-12-18T06:26:30.248Z,98081.78
2022-12-18T06:28:57.131Z,98082.44
2022-12-18T06:31:24.158Z,98086.97
2022-12-18T06:33:54.145Z,98084.75
2022-12-18T06:36:23.180Z,98081.31
2022-12-18T06:38:52.266Z,98081.78
2022-12-18T06:41:23.461Z,98090.06
2022-12-18T06:43:56.787Z,98094.47
2022-12-18T06:46:28.548Z,98097.91
2022-12-18T06:48:55.110Z,98086.63
2022-12-18T06:51:25.262Z,98093.97
2022-12-18T06:53:51.833Z,98098.50
2022-12-18T06:56:18.700Z,98105.22
2022-12-18T06:58:47.592Z,98103.81
2022-12-18T07:01:14.887Z,98102.75
2022-12-18T07:03:45.591Z,98109.75
2022-12-18T07:06:23.236Z,98112.41
2022-12-18T07:08:53.992Z,98115.38
2022-12-18T07:11:22.471Z,98115.53
2022-12-18T07:13:49.161Z,98114.28
2022-12-18T07:16:24.642Z,98114.16
2022-12-18T07:18:52.266Z,98118.41
2022-12-18T07:21:22.994Z,98118.53
2022-12-18T07:23:52.417Z,98121.84
2022-12-18T07:26:22.694Z,98123.53
2022-12-18T07:28:51.459Z,98119.00
2022-12-18T07:31:21.832Z,98122.13
2022-12-18T07:33:49.660Z,98124.78
2022-12-18T07:36:19.505Z,98123.50
2022-12-18T07:38:51.053Z,98128.22
2022-12-18T07:41:21.857Z,98132.59
2022-12-18T07:43:48.878Z,98134.06
2022-12-18T07:46:16.795Z,98143.41
2022-12-18T07:48:46.255Z,98142.81
2022-12-18T07:51:19.782Z,98141.84
2022-12-18T07:53:52.263Z,98149.38
2022-12-18T07:56:27.819Z,98155.47
2022-12-18T07:58:55.206Z,98159.72
2022-12-18T08:01:24.904Z,98158.81
2022-12-18T08:03:52.491Z,98165.34
2022-12-18T08:06:23.997Z,98168.34
2022-12-18T08:08:57.337Z,98168.47
2022-12-18T08:11:25.526Z,98170.38
2022-12-18T08:13:55.034Z,98163.63
2022-12-18T08:16:23.159Z,98170.56
2022-12-18T08:18:49.884Z,98176.84
2022-12-18T08:21:24.097Z,98173.69
2022-12-18T08:23:53.895Z,98178.06
2022-12-18T08:26:21.986Z,98179.81
2022-12-18T08:28:49.246Z,98183.06
2022-12-18T08:31:19.381Z,98183.06
2022-12-18T08:33:53.275Z,98178.25
2022-12-18T08:36:21.523Z,98187.19
2022-12-18T08:38:48.406Z,98178.44
2022-12-18T08:41:18.232Z,98173.41
2022-12-18T08:44:05.992Z,98172.63
2022-12-18T08:46:37.097Z,98176.56
2022-12-18T08:49:04.291Z,98169.69
2022-12-18T08:51:35.932Z,98174.84
2022-12-18T08:54:03.459Z,98166.09
2022-12-18T08:56:38.727Z,98159.50
2022-12-18T08:59:05.499Z,98156.69
2022-12-18T09:01:39.412Z,98158.91
2022-12-18T09:04:06.058Z,98154.50
2022-12-18T09:06:34.158Z,98152.78
2022-12-18T09:09:00.672Z,98146.50
2022-12-18T09:11:33.296Z,98144.03
2022-12-18T09:14:01.969Z,98149.66
2022-12-18T09:16:32.383Z,98163.94
2022-12-18T09:19:00.761Z,98159.69
2022-12-18T09:21:30.176Z,98167.22
2022-12-18T09:23:59.659Z,98162.81
2022-12-18T09:26:27.270Z,98171.91
2022-12-18T09:28:54.493Z,98169.38
2022-12-18T09:31:22.547Z,98178.78
2022-12-18T09:33:51.566Z,98174.72
2022-12-18T09:36:21.207Z,98184.41
2022-12-18T09:38:50.902Z,98180.69
2022-12-18T09:41:45.468Z,98175.50
2022-12-18T09:44:15.407Z,98163.59
2022-12-18T09:46:50.589Z,98161.25
2022-12-18T09:49:24.522Z,98171.44
2022-12-18T09:52:01.038Z,98165.94
2022-12-18T09:54:41.862Z,98169.88
2022-12-18T09:57:15.381Z,98172.69
2022-12-18T09:59:50.956Z,98175.66
2022-12-18T10:02:26.350Z,98182.88
2022-12-18T10:05:07.578Z,98180.84
2022-12-18T10:07:42.455Z,98182.75
2022-12-18T10:10:33.186Z,98186.94
2022-12-18T10:13:32.453Z,98179.91
2022-12-18T10:16:08.138Z,98176.16
2022-12-18T10:18:56.781Z,98175.06
2022-12-18T10:21:37.726Z,98173.34
2022-12-18T10:24:17.446Z,98170.22
2022-12-18T10:26:45.191Z,98165.03
2022-12-18T10:29:19.378Z,98168.63
2022-12-18T10:31:46.048Z,98175.03
2022-12-18T10:34:15.487Z,98169.25
2022-12-18T10:36:43.273Z,98169.41
2022-12-18T10:39:17.194Z,98162.84
2022-12-18T10:41:43.958Z,98163.41
2022-12-18T10:44:21.318Z,98167.22
2022-12-18T10:46:57.766Z,98171.59
2022-12-18T10:49:27.739Z,98162.00
2022-12-18T10:52:20.987Z,98161.00
2022-12-18T10:54:56.347Z,98158.22
2022-12-18T10:57:39.099Z,98164.78
2022-12-18T11:00:29.871Z,98157.56
2022-12-18T11:02:57.592Z,98156.03
2022-12-18T11:05:28.243Z,98156.63
2022-12-18T11:07:57.303Z,98146.97
2022-12-18T11:10:29.844Z,98154.00
2022-12-18T11:13:17.266Z,98148.34
2022-12-18T11:15:46.669Z,98144.41
2022-12-18T11:18:27.351Z,98149.44
2022-12-18T11:21:01.689Z,98142.38
2022-12-18T11:23:28.702Z,98135.97
2022-12-18T11:25:58.955Z,98135.97
2022-12-18T11:28:51.695Z,98138.72
2022-12-18T11:31:36.354Z,98133.19
2022-12-18T11:34:29.457Z,98123.03
2022-12-18T11:36:58.786Z,98123.66
2022-12-18T11:39:42.918Z,98128.84
2022-12-18T11:42:32.335Z,98136.94
2022-12-18T11:45:03.533Z,98124.13
2022-12-18T11:47:41.628Z,98115.53
2022-12-18T11:50:18.476Z,98118.41
2022-12-18T11:52:45.770Z,98121.03
2022-12-18T11:55:17.245Z,98123.06
2022-12-18T11:57:59.684Z,98111.31
2022-12-18T12:00:26.263Z,98112.22
2022-12-18T12:03:17.087Z,98106.25
2022-12-18T12:06:07.805Z,98106.53
2022-12-18T12:08:43.412Z,98112.84
2022-12-18T12:11:36.115Z,98104.56
2022-12-18T12:14:14.737Z,98114.47
2022-12-18T12:16:46.369Z,98109.13
2022-12-18T12:19:58.415Z,98117.13
2022-12-18T12:22:39.423Z,98113.22
2022-12-18T12:25:21.870Z,98101.44
2022-12-18T12:28:14.442Z,98095.66
2022-12-18T12:30:46.960Z,98098.31
2022-12-18T12:33:34.778Z,98103.19
2022-12-18T12:36:30.702Z,98096.41
2022-12-18T12:39:06.418Z,98093.72
2022-12-18T12:41:53.730Z,98096.94
2022-12-18T12:44:51.301Z,98097.38
2022-12-18T12:47:29.437Z,98094.88
2022-12-18T12:49:59.221Z,98086.06
2022-12-18T12:52:38.315Z,98082.28
2022-12-18T12:55:14.830Z,98086.06
2022-12-18T12:57:50.360Z,98080.72
2022-12-18T13:00:25.214Z,98087.97
2022-12-18T13:03:16.611Z,98085.13
2022-12-18T13:06:00.185Z,98081.41
2022-12-18T13:09:07.372Z,98084.72
2022-12-18T13:14:50.164Z,98090.88
2022-12-18T13:17:20.176Z,98090.75
2022-12-18T13:19:52.045Z,98090.56
2022-12-18T13:22:22.626Z,98085.25
2022-12-18T13:24:52.116Z,98091.53
2022-12-18T13:27:43.819Z,98084.63
2022-12-18T13:30:35.224Z,98095.88
2022-12-18T13:33:17.491Z,98086.97
2022-12-18T13:35:47.204Z,98094.50
2022-12-18T13:38:32.044Z,98086.81
2022-12-18T13:41:13.992Z,98089.94
2022-12-18T13:43:45.958Z,98097.13
2022-12-18T13:46:28.322Z,98098.88
2022-12-18T13:48:57.801Z,98092.13
2022-12-18T13:51:26.212Z,98086.16
2022-12-18T13:54:05.206Z,98089.75
2022-12-18T13:59:17.069Z,98084.41
2022-12-18T14:01:54.100Z,98082.09
2022-12-18T14:04:25.368Z,98080.53
2022-12-18T14:07:21.860Z,98084.91
2022-12-18T14:13:01.120Z,98094.31
2022-12-18T14:15:30.091Z,98086.78
2022-12-18T14:18:12.483Z,98087.56
2022-12-18T14:20:46.501Z,98078.03
2022-12-18T14:23:29.593Z,98078.47
2022-12-18T14:26:05.827Z,98083.66
2022-12-18T14:28:33.161Z,98085.69
2022-12-18T14:30:59.913Z,98085.84
2022-12-18T14:33:30.857Z,98082.56
2022-12-18T14:36:04.085Z,98085.09
2022-12-18T14:38:38.049Z,98077.84
2022-12-18T14:41:10.719Z,98074.75
2022-12-18T14:43:39.767Z,98083.34
2022-12-18T14:46:29.426Z,98077.84
2022-12-18T14:48:56.729Z,98078.50
2022-12-18T14:51:28.500Z,98077.53
2022-12-18T14:53:58.728Z,98074.28
2022-12-18T14:56:32.848Z,98068.66
2022-12-18T14:59:01.779Z,98072.72
2022-12-18T15:01:29.838Z,98084.63
2022-12-18T15:03:57.759Z,98078.34
2022-12-18T15:06:33.034Z,98076.94
2022-12-18T15:09:01.799Z,98081.47
2022-12-18T15:11:32.151Z,98088.25
2022-12-18T15:14:21.333Z,98086.19
2022-12-18T15:16:52.595Z,98088.38
2022-12-18T15:19:21.484Z,98083.84
2022-12-18T15:21:48.065Z,98097.50
2022-12-18T15:24:21.239Z,98089.50
2022-12-18T15:26:48.894Z,98084.97
2022-12-18T15:29:24.476Z,98088.06
2022-12-18T15:32:08.476Z,98096.06
2022-12-18T15:34:35.154Z,98097.63
2022-12-18T15:37:01.693Z,98094.84
2022-12-18T15:39:28.299Z,98089.50
2022-12-18T15:42:13.452Z,98091.53
2022-12-18T15:44:40.218Z,98092.97
2022-12-18T15:47:13.026Z,98100.31
2022-12-18T15:49:40.229Z,98097.03
2022-12-18T15:52:09.857Z,98101.41
2022-12-18T15:54:57.462Z,98111.13
2022-12-18T15:57:24.000Z,98102.34
2022-12-18T15:59:59.363Z,98104.53
2022-12-18T16:02:29.697Z,98106.91
2022-12-18T16:04:56.977Z,98112.38
2022-12-18T16:07:25.150Z,98110.97
2022-12-18T16:09:52.830Z,98112.22
2022-12-18T16:12:23.532Z,98112.84
2022-12-18T16:14:52.324Z,98110.81
2022-12-18T16:17:21.201Z,98117.09
2022-12-18T16:19:49.870Z,98115.81
2022-12-18T16:22:21.999Z,98124.75
2022-12-18T16:24:49.084Z,98112.53
2022-12-18T16:27:15.844Z,98110.03
2022-12-18T16:29:44.612Z,98101.41
2022-12-18T16:32:20.720Z,98108.00
2022-12-18T16:34:50.089Z,98104.88
2022-12-18T16:37:17.253Z,98105.97
2022-12-18T16:39:44.438Z,98101.91
2022-12-18T16:42:17.434Z,98096.88
2022-12-18T16:44:45.116Z,98100.81
2022-12-18T16:47:14.975Z,98101.56
2022-12-18T16:49:52.916Z,98098.91
2022-12-18T16:52:22.385Z,98095.75
2022-12-18T16:54:51.247Z,98083.19
2022-12-18T16:57:21.600Z,98087.75
2022-12-18T16:59:52.791Z,98093.09
2022-12-18T17:02:24.091Z,98084.94
2022-12-18T17:04:54.927Z,98084.47
2022-12-18T17:07:23.822Z,98086.19
2022-12-18T17:09:54.232Z,98083.41
2022-12-18T17:12:23.761Z,98082.44
2022-12-18T17:14:50.607Z,98078.84
2022-12-18T17:17:22.362Z,98093.72
2022-12-18T17:19:50.570Z,98083.38
2022-12-18T17:22:19.840Z,98087.63
2022-12-18T17:24:49.116Z,98097.19
2022-12-18T17:27:18.418Z,98091.53
2022-12-18T17:29:48.872Z,98092.50
2022-12-18T17:32:18.344Z,98102.34
2022-12-18T17:34:45.227Z,98092.97
2022-12-18T17:37:11.872Z,98099.69
2022-12-18T17:39:38.593Z,98095.94
2022-12-18T17:42:08.650Z,98093.41
2022-12-18T17:44:40.005Z,98100.63
2022-12-18T17:47:06.646Z,98106.88
2022-12-18T17:49:35.506Z,98104.22
2022-12-18T17:52:04.527Z,98103.75
2022-12-18T17:54:31.151Z,98105.63
2022-12-18T17:57:00.674Z,98109.22
2022-12-18T17:59:32.293Z,98107.66
2022-12-18T18:01:58.997Z,98102.47
2022-12-18T18:04:25.777Z,98095.28
2022-12-18T18:06:54.809Z,98098.59
2022-12-18T18:09:21.393Z,98096.22
2022-12-18T18:12:09.060Z,98099.69
2022-12-18T18:14:35.967Z,98091.69
2022-12-18T18:17:04.641Z,98103.44
2022-12-18T18:19:32.961Z,98113.16
2022-12-18T18:21:59.688Z,98107.34
2022-12-18T18:24:26.376Z,98102.94
2022-12-18T18:26:53.354Z,98105.13
2022-12-18T18:29:26.896Z,98112.50
2022-12-18T18:31:54.744Z,98110.63
2022-12-18T18:34:27.347Z,98106.25
2022-12-18T18:36:59.338Z,98100.47
2022-12-18T18:39:26.456Z,98102.03
2022-12-18T18:41:53.601Z,98096.38
2022-12-18T18:44:21.930Z,98094.19
2022-12-18T18:46:56.645Z,98098.13
2022-12-18T18:49:27.111Z,98103.91
2022-12-18T18:52:00.290Z,98106.41
2022-12-18T18:54:26.843Z,98091.03
2022-12-18T18:59:42.814Z,98100.59
2022-12-18T19:02:17.651Z,98101.06
2022-12-18T19:04:47.116Z,98092.31
2022-12-18T19:07:20.336Z,98086.84
2022-12-18T19:09:56.573Z,98088.88
2022-12-18T19:12:44.021Z,98092.31
2022-12-18T19:15:10.593Z,98083.22
2022-12-18T19:17:40.264Z,98082.75
2022-12-18T19:20:10.196Z,98087.28
2022-12-18T19:22:38.885Z,98074.47
2022-12-18T19:25:05.902Z,98081.34
2022-12-18T19:27:38.890Z,98072.75
2022-12-18T19:30:06.125Z,98075.41
2022-12-18T19:32:33.955Z,98072.91
2022-12-18T19:35:00.673Z,98074.16
2022-12-18T19:37:28.242Z,98073.19
2022-12-18T19:39:59.609Z,98074.94
2022-12-18T19:42:35.289Z,98072.91
2022-12-18T19:45:07.739Z,98073.84
2022-12-18T19:47:34.332Z,98072.44
2022-12-18T19:50:00.966Z,98080.56
2022-12-18T19:52:27.576Z,98077.91
2022-12-18T19:54:54.419Z,98069.44
2022-12-18T19:57:24.056Z,98069.13
2022-12-18T19:59:52.657Z,98076.34
2022-12-18T20:02:21.128Z,98074.47
2022-12-18T20:04:48.995Z,98071.66
2022-12-18T20:07:15.604Z,98069.44
2022-12-18T20:09:47.104Z,98071.19
2022-12-18T20:12:14.741Z,98063.81
2022-12-18T20:14:41.450Z,98069.91
2022-12-18T20:17:12.978Z,98067.25
2022-12-18T20:19:41.958Z,98064.59
2022-12-18T20:22:13.956Z,98059.28
2022-12-18T20:24:40.956Z,98061.94
2022-12-18T20:27:14.028Z,98060.06
2022-12-18T20:29:43.519Z,98052.53
2022-12-18T20:32:10.419Z,98058.63
2022-12-18T20:34:37.227Z,98054.59
2022-12-18T20:37:06.481Z,98057.09
2022-12-18T20:39:39.255Z,98057.25
2022-12-18T20:42:06.283Z,98058.19
2022-12-18T20:44:35.243Z,98064.47
2022-12-18T20:47:07.711Z,98069.63
2022-12-18T20:49:35.743Z,98067.56
2022-12-18T20:52:11.423Z,98068.03
2022-12-18T20:54:37.999Z,98064.91
2022-12-18T20:57:04.982Z,98069.16
2022-12-18T20:59:36.209Z,98058.50
2022-12-18T21:02:05.427Z,98052.84
2022-12-18T21:04:32.088Z,98067.13
2022-12-18T21:07:02.719Z,98069.63
2022-12-18T21:09:37.129Z,98070.41
2022-12-18T21:12:25.413Z,98077.59
2022-12-18T21:14:52.049Z,98081.22
2022-12-18T21:17:18.733Z,98083.56
2022-12-18T21:19:45.632Z,98076.50
2022-12-18T21:22:13.433Z,98067.25
2022-12-18T21:24:40.199Z,98082.75
2022-12-18T21:27:06.799Z,98086.19
2022-12-18T21:29:34.925Z,98075.41
2022-12-18T21:32:02.945Z,98072.91
2022-12-18T21:34:31.230Z,98078.22
2022-12-18T21:37:01.011Z,98069.91
2022-12-18T21:39:31.096Z,98057.22
2022-12-18T21:42:17.111Z,98051.94
2022-12-18T21:44:46.988Z,98054.28
2022-12-18T21:47:22.643Z,98056.13
2022-12-18T21:49:53.369Z,98044.56
2022-12-18T21:52:21.635Z,98044.41
2022-12-18T21:55:06.238Z,98045.19
2022-12-18T21:57:35.657Z,98044.72
2022-12-18T22:00:04.516Z,98047.06
2022-12-18T22:02:33.364Z,98046.13
2022-12-18T22:05:02.307Z,98029.38
2022-12-18T22:07:29.294Z,98032.19
2022-12-18T22:09:58.283Z,98028.13
2022-12-18T22:12:43.414Z,98038.31
2022-12-18T22:15:12.031Z,98022.31
2022-12-18T22:17:45.598Z,98035.00
2022-12-18T22:20:13.366Z,98037.06
2022-12-18T22:22:39.871Z,98032.97
2022-12-18T22:25:10.009Z,98028.13
2022-12-18T22:27:39.915Z,98036.56
2022-12-18T22:30:11.091Z,98043.78
2022-12-18T22:32:42.139Z,98043.16
2022-12-18T22:35:15.746Z,98042.84
2022-12-18T22:37:42.733Z,98036.72
2022-12-18T22:40:22.259Z,98033.63
2022-12-18T22:42:53.467Z,98036.75
2022-12-18T22:45:21.155Z,98041.13
2022-12-18T22:47:47.705Z,98051.00
2022-12-18T22:50:14.766Z,98052.41
2022-12-18T22:52:41.381Z,98044.75
2022-12-18T22:55:12.419Z,98039.88
2022-12-18T22:57:39.402Z,98038.75
2022-12-18T23:00:09.355Z,98046.44
2022-12-18T23:02:38.636Z,98043.94
2022-12-18T23:05:08.541Z,98040.50
2022-12-18T23:07:35.054Z,98040.03
2022-12-18T23:10:01.594Z,98040.81
2022-12-18T23:12:28.301Z,98044.25
2022-12-18T23:14:54.991Z,98039.53
2022-12-18T23:17:23.639Z,98035.78
2022-12-18T23:19:50.188Z,98044.41
2022-12-18T23:22:20.060Z,98040.50
2022-12-18T23:24:51.344Z,98033.44
2022-12-18T23:27:17.903Z,98036.88
2022-12-18T23:29:47.396Z,98034.06
2022-12-18T23:32:15.280Z,98031.56
2022-12-18T23:34:44.291Z,98027.66
2022-12-18T23:37:35.335Z,98037.03
2022-12-18T23:40:02.688Z,98027.16
2022-12-18T23:42:29.250Z,98025.13
2022-12-18T23:44:55.787Z,98028.44
2022-12-18T23:47:26.436Z,98035.44
2022-12-18T23:49:52.975Z,98028.25
2022-12-18T23:52:22.221Z,98024.34
2022-12-18T23:54:50.790Z,98029.63
2022-12-18T23:57:17.546Z,98037.47
2022-12-18T23:59:45.918Z,98038.38
